Time;durP1;ratioP1;P1;durP2;ratioP2;P2;SDS_P1;SDS_P2;PMS_P1;PMS_P2;Temp;Humidity;BMP_temperature;BMP_pressure;BME280_temperature;BME280_humidity;BME280_pressure;Samples;Min_cycle;Max_cycle;Signal;HPM_P1;HPM_P2
2023/03/13 00:00:26;;;;;;;6.50;1.65;;;8.10;99.00;;;;;;2078054;28;20187;-63
2023/03/13 00:01:42;;;;;;;3.53;1.20;;;8.10;99.00;;;;;;2077827;28;20268;-64
2023/03/13 00:02:47;;;;;;;3.42;1.00;;;8.10;99.10;;;;;;2077044;28;20232;-63
2023/03/13 00:03:54;;;;;;;1.67;1.20;;;8.20;99.00;;;;;;2080471;28;20547;-63
2023/03/13 00:04:59;;;;;;;8.60;1.80;;;8.20;99.00;;;;;;2074070;28;20340;-64
2023/03/13 00:06:05;;;;;;;3.65;1.15;;;8.20;99.00;;;;;;2077748;28;20187;-63
2023/03/13 00:07:10;;;;;;;2.42;0.90;;;8.30;99.00;;;;;;2077846;28;20564;-63
2023/03/13 00:08:15;;;;;;;4.18;1.60;;;8.30;99.00;;;;;;2077185;28;20657;-63
2023/03/13 00:09:22;;;;;;;3.40;1.10;;;8.30;99.00;;;;;;2077789;28;20568;-64
2023/03/13 00:10:28;;;;;;;1.10;0.80;;;8.30;99.00;;;;;;2074192;28;20193;-64
2023/03/13 00:11:33;;;;;;;3.47;2.75;;;8.30;99.10;;;;;;2077853;28;20185;-63
2023/03/13 00:12:39;;;;;;;5.93;5.32;;;8.30;99.20;;;;;;2075582;28;20209;-64
2023/03/13 00:13:44;;;;;;;9.65;8.80;;;8.20;99.50;;;;;;2077901;28;20196;-64
2023/03/13 00:14:50;;;;;;;3.50;1.13;;;8.20;99.70;;;;;;2077666;28;20285;-64
2023/03/13 00:16:07;;;;;;;3.65;0.90;;;8.20;99.90;;;;;;2073966;28;20208;-64
2023/03/13 00:17:09;;;;;;;3.72;1.00;;;8.20;99.90;;;;;;2077544;28;20662;-64
2023/03/13 00:18:15;;;;;;;2.95;0.82;;;8.30;99.90;;;;;;2077053;28;20682;-63
2023/03/13 00:19:20;;;;;;;4.00;3.67;;;8.30;99.90;;;;;;2077903;28;20217;-63
2023/03/13 00:20:26;;;;;;;2.60;0.80;;;8.30;99.90;;;;;;2077804;28;20185;-64
2023/03/13 00:21:31;;;;;;;4.60;4.20;;;8.30;99.90;;;;;;2077740;28;20678;-63
2023/03/13 00:22:32;;;;;;;3.75;2.83;;;8.40;99.90;;;;;;2077668;28;20685;-64
2023/03/13 00:23:38;;;;;;;1.90;1.10;;;8.30;99.90;;;;;;2077993;28;20308;-64
2023/03/13 00:24:45;;;;;;;1.45;1.30;;;8.30;99.90;;;;;;2077831;28;20263;-63
2023/03/13 00:25:59;;;;;;;3.58;1.95;;;8.30;99.90;;;;;;2073772;28;20197;-64
2023/03/13 00:27:05;;;;;;;5.15;3.15;;;8.30;99.90;;;;;;2077246;28;20188;-63
2023/03/13 00:28:09;;;;;;;11.20;10.60;;;8.30;99.90;;;;;;2077016;28;20181;-64
2023/03/13 00:29:15;;;;;;;1.70;0.90;;;8.30;99.90;;;;;;2073654;28;20181;-63
2023/03/13 00:30:20;;;;;;;3.17;1.13;;;8.40;99.90;;;;;;2077661;28;20184;-64
2023/03/13 00:31:29;;;;;;;1.85;0.93;;;8.40;99.90;;;;;;2077594;28;20188;-64
2023/03/13 00:32:45;;;;;;;1.10;0.90;;;8.40;99.90;;;;;;2077025;28;20317;-64
2023/03/13 00:33:58;;;;;;;3.30;1.10;;;8.40;99.90;;;;;;2074412;28;20185;-63
2023/03/13 00:35:03;;;;;;;3.83;1.52;;;8.40;99.90;;;;;;2077566;28;20177;-63
2023/03/13 00:36:14;;;;;;;2.95;2.75;;;8.50;99.90;;;;;;2077621;28;20185;-63
2023/03/13 00:37:20;;;;;;;2.15;1.75;;;8.40;99.90;;;;;;2074902;28;20219;-63
2023/03/13 00:38:28;;;;;;;2.70;2.35;;;8.50;99.90;;;;;;2077266;28;20224;-63
2023/03/13 00:39:33;;;;;;;3.17;2.25;;;8.40;99.90;;;;;;2076852;28;20190;-63
2023/03/13 00:40:39;;;;;;;6.90;6.47;;;8.40;99.90;;;;;;2073573;28;20814;-63
2023/03/13 00:41:45;;;;;;;1.83;1.70;;;8.50;99.90;;;;;;2077491;28;20184;-63
2023/03/13 00:42:51;;;;;;;2.00;1.23;;;8.40;99.90;;;;;;2077674;28;20192;-63
2023/03/13 00:43:57;;;;;;;12.63;11.73;;;8.40;99.90;;;;;;2077318;28;20181;-63
2023/03/13 00:45:04;;;;;;;1.27;1.05;;;8.40;99.90;;;;;;2077587;28;20185;-63
2023/03/13 00:46:05;;;;;;;2.55;1.52;;;8.50;99.90;;;;;;2076714;28;20189;-64
2023/03/13 00:47:09;;;;;;;2.03;0.80;;;8.50;99.90;;;;;;2076523;28;20766;-64
2023/03/13 00:48:15;;;;;;;2.10;1.00;;;8.60;99.90;;;;;;2076893;28;20217;-64
2023/03/13 00:49:21;;;;;;;27.73;26.08;;;8.60;99.90;;;;;;2077447;28;20181;-63
2023/03/13 00:50:26;;;;;;;5.15;1.38;;;8.60;99.90;;;;;;2077536;28;20182;-63
2023/03/13 00:51:32;;;;;;;1.60;0.70;;;8.60;99.90;;;;;;2073807;28;20184;-63
2023/03/13 00:52:38;;;;;;;6.95;6.47;;;8.60;99.90;;;;;;2077505;28;20592;-64
2023/03/13 00:53:46;;;;;;;9.98;9.38;;;8.70;99.90;;;;;;2077388;28;20193;-63
2023/03/13 00:54:52;;;;;;;3.80;3.58;;;8.60;99.90;;;;;;2077539;28;20189;-63
2023/03/13 00:56:12;;;;;;;3.58;2.92;;;8.70;99.90;;;;;;2073454;28;20191;-63
2023/03/13 00:57:18;;;;;;;2.08;0.60;;;8.70;99.90;;;;;;2077248;28;20698;-64
2023/03/13 00:58:26;;;;;;;2.05;0.90;;;8.70;99.90;;;;;;2076869;28;20178;-64
2023/03/13 00:59:32;;;;;;;4.00;3.20;;;8.80;99.90;;;;;;2074497;28;20788;-64
2023/03/13 01:00:38;;;;;;;1.77;0.80;;;8.80;99.90;;;;;;2076636;28;20193;-64
2023/03/13 01:01:44;;;;;;;4.95;4.35;;;8.80;99.90;;;;;;2076908;28;20190;-64
2023/03/13 01:02:49;;;;;;;4.18;1.02;;;8.80;99.90;;;;;;2077379;28;20612;-62
2023/03/13 01:03:59;;;;;;;13.65;12.95;;;8.80;99.90;;;;;;2073855;28;20623;-64
2023/03/13 01:05:05;;;;;;;2.25;1.27;;;8.80;99.90;;;;;;2077337;28;20673;-64
2023/03/13 01:06:13;;;;;;;2.10;1.15;;;8.90;99.90;;;;;;2077149;28;20316;-63
2023/03/13 01:07:19;;;;;;;3.05;1.60;;;9.00;99.90;;;;;;2077277;28;20194;-64
2023/03/13 01:08:25;;;;;;;4.97;3.20;;;8.90;99.90;;;;;;2075631;28;20197;-64
2023/03/13 01:09:31;;;;;;;5.82;5.13;;;8.90;99.90;;;;;;2077400;28;20568;-64
2023/03/13 01:10:37;;;;;;;2.70;2.13;;;8.90;99.90;;;;;;2072894;28;20198;-64
2023/03/13 01:11:44;;;;;;;10.95;10.35;;;9.00;99.90;;;;;;2077373;28;20662;-64
2023/03/13 01:12:50;;;;;;;5.43;4.57;;;9.00;99.90;;;;;;2073720;28;20276;-63
2023/03/13 01:14:07;;;;;;;1.85;1.48;;;9.00;99.90;;;;;;2077339;28;20185;-63
2023/03/13 01:15:10;;;;;;;1.60;1.27;;;9.00;99.90;;;;;;2077019;28;20659;-63
2023/03/13 01:16:19;;;;;;;1.92;1.08;;;9.10;99.90;;;;;;2073530;28;20227;-63
2023/03/13 01:17:25;;;;;;;3.22;0.90;;;9.10;99.90;;;;;;2077137;28;20212;-63
2023/03/13 01:18:31;;;;;;;2.15;0.88;;;9.10;99.80;;;;;;2076900;28;20192;-63
2023/03/13 01:19:36;;;;;;;2.70;0.80;;;9.10;99.80;;;;;;2077217;28;20185;-63
2023/03/13 01:20:41;;;;;;;3.92;3.63;;;9.10;99.90;;;;;;2073189;28;20197;-63
2023/03/13 01:21:47;;;;;;;0.88;0.65;;;9.10;99.90;;;;;;2077068;28;20192;-64
2023/03/13 01:22:52;;;;;;;0.73;0.68;;;9.10;99.90;;;;;;2077173;28;20192;-64
2023/03/13 01:23:58;;;;;;;3.95;3.03;;;9.10;99.90;;;;;;2077128;28;20193;-63
2023/03/13 01:25:04;;;;;;;1.02;0.65;;;9.10;99.90;;;;;;2077034;28;20232;-64
2023/03/13 01:26:10;;;;;;;3.70;3.40;;;9.10;99.90;;;;;;2073419;28;20189;-64
2023/03/13 01:27:15;;;;;;;1.35;1.10;;;9.10;99.90;;;;;;2076955;28;20780;-64
2023/03/13 01:28:21;;;;;;;0.93;0.68;;;9.10;99.90;;;;;;2076653;28;20287;-64
2023/03/13 01:29:25;;;;;;;5.90;5.60;;;9.20;99.90;;;;;;2076401;28;20280;-64
2023/03/13 01:30:31;;;;;;;1.73;1.17;;;9.10;99.90;;;;;;2076610;28;20193;-63
2023/03/13 01:31:35;;;;;;;8.85;8.32;;;9.10;99.90;;;;;;2076844;28;20223;-63
2023/03/13 01:32:38;;;;;;;2.85;2.70;;;9.10;99.90;;;;;;2073538;28;20209;-64
2023/03/13 01:33:48;;;;;;;7.10;6.70;;;9.10;99.90;;;;;;2077025;28;20189;-64
2023/03/13 01:34:49;;;;;;;6.88;6.47;;;9.10;99.90;;;;;;2077081;28;20189;-63
2023/03/13 01:36:01;;;;;;;6.38;5.97;;;9.10;99.90;;;;;;2077017;28;20201;-63
2023/03/13 01:37:04;;;;;;;3.25;2.92;;;9.10;99.90;;;;;;2073420;28;20284;-61
2023/03/13 01:38:09;;;;;;;7.63;7.22;;;9.20;99.90;;;;;;2076428;28;20195;-64
2023/03/13 01:39:15;;;;;;;6.50;5.97;;;9.20;99.90;;;;;;2077024;28;20181;-64
2023/03/13 01:40:20;;;;;;;2.47;0.90;;;9.20;99.90;;;;;;2077003;28;20189;-63
2023/03/13 01:41:28;;;;;;;18.65;17.45;;;9.20;99.90;;;;;;2076995;28;20674;-64
2023/03/13 01:42:56;;;;;;;5.10;4.72;;;9.20;99.90;;;;;;2073945;28;20224;-63
2023/03/13 01:43:58;;;;;;;2.28;1.35;;;9.20;99.90;;;;;;2073068;28;20227;-63
2023/03/13 01:45:00;;;;;;;2.72;1.30;;;9.30;99.90;;;;;;2076868;28;20235;-63
2023/03/13 01:46:12;;;;;;;2.78;2.58;;;9.30;99.90;;;;;;2076974;28;20686;-62
2023/03/13 01:47:15;;;;;;;5.38;4.97;;;9.30;99.90;;;;;;2077017;28;20221;-63
2023/03/13 01:49:01;;;;;;;2.10;0.88;;;9.20;99.90;;;;;;2076397;28;20185;-64
2023/03/13 01:50:05;;;;;;;2.33;2.17;;;9.20;99.90;;;;;;2055447;28;20202;-63
2023/03/13 01:51:38;;;;;;;2.60;1.00;;;9.20;99.90;;;;;;2066221;28;20194;-63
2023/03/13 01:52:43;;;;;;;3.92;3.60;;;9.30;99.90;;;;;;2082587;28;20225;-63
2023/03/13 01:54:16;;;;;;;3.78;3.47;;;9.20;99.90;;;;;;2084596;28;20221;-63
2023/03/13 01:55:22;;;;;;;1.38;0.90;;;9.20;99.90;;;;;;2071711;28;20207;-63
2023/03/13 01:56:38;;;;;;;3.22;3.03;;;9.10;99.90;;;;;;2070314;28;20760;-63
2023/03/13 01:57:49;;;;;;;10.80;10.07;;;9.00;99.90;;;;;;2073670;28;20221;-64
2023/03/13 01:58:58;;;;;;;8.15;7.60;;;9.00;99.90;;;;;;2076665;28;20191;-64
2023/03/13 02:00:11;;;;;;;1.80;0.93;;;9.00;99.90;;;;;;2073600;28;20646;-63
2023/03/13 02:01:18;;;;;;;19.23;18.05;;;9.00;99.90;;;;;;2076397;28;20236;-64
2023/03/13 02:02:24;;;;;;;4.90;4.60;;;8.90;99.90;;;;;;2076369;28;20216;-64
2023/03/13 02:03:30;;;;;;;10.73;10.20;;;8.90;99.90;;;;;;2070125;28;20218;-63
2023/03/13 02:04:40;;;;;;;3.05;2.47;;;8.90;99.90;;;;;;2076649;28;21110;-63
2023/03/13 02:05:48;;;;;;;2.50;1.77;;;8.90;99.90;;;;;;2073322;28;20188;-64
2023/03/13 02:07:02;;;;;;;2.45;0.75;;;8.80;99.90;;;;;;2076164;28;20184;-63
2023/03/13 02:08:20;;;;;;;2.75;1.30;;;8.70;99.90;;;;;;2075646;28;20190;-63
2023/03/13 02:09:30;;;;;;;0.93;0.80;;;8.80;99.90;;;;;;2075758;28;20558;-64
2023/03/13 02:10:38;;;;;;;0.68;0.60;;;8.80;99.90;;;;;;2072408;28;20238;-64
2023/03/13 02:12:03;;;;;;;1.33;1.15;;;8.80;99.90;;;;;;2069495;28;20273;-64
2023/03/13 02:13:04;;;;;;;1.67;1.45;;;8.80;99.90;;;;;;2075521;28;20192;-64
2023/03/13 02:14:10;;;;;;;3.15;1.05;;;8.70;99.90;;;;;;2076975;28;20181;-63
2023/03/13 02:15:20;;;;;;;1.92;1.35;;;8.60;99.90;;;;;;2076764;28;20284;-64
2023/03/13 02:16:26;;;;;;;3.40;1.30;;;8.60;99.90;;;;;;2076146;28;20195;-64
2023/03/13 02:17:34;;;;;;;2.97;2.80;;;8.60;99.90;;;;;;2075671;28;20256;-62
2023/03/13 02:18:40;;;;;;;14.95;14.15;;;8.50;99.90;;;;;;2072241;28;20273;-63
2023/03/13 02:19:50;;;;;;;1.45;1.23;;;8.50;99.90;;;;;;2076239;28;20200;-64
2023/03/13 02:21:09;;;;;;;4.50;2.45;;;8.50;99.90;;;;;;2076792;28;20188;-64
2023/03/13 02:22:29;;;;;;;1.63;1.25;;;8.50;99.90;;;;;;2074096;28;20208;-63
2023/03/13 02:23:51;;;;;;;3.35;0.98;;;8.40;99.90;;;;;;2068628;28;20219;-64
2023/03/13 02:25:12;;;;;;;1.98;1.10;;;8.60;99.90;;;;;;2073238;28;20649;-64
2023/03/13 02:26:17;;;;;;;1.83;1.77;;;8.60;99.90;;;;;;2072922;28;20189;-62
2023/03/13 02:27:23;;;;;;;0.90;0.80;;;8.60;99.90;;;;;;2076749;28;20231;-64
2023/03/13 02:28:38;;;;;;;3.97;3.78;;;8.60;99.90;;;;;;2076150;28;20177;-63
2023/03/13 02:29:44;;;;;;;2.40;2.20;;;8.60;99.90;;;;;;2073494;28;20193;-64
2023/03/13 02:30:53;;;;;;;2.08;1.98;;;8.60;99.90;;;;;;2076116;28;20224;-64
2023/03/13 02:31:55;;;;;;;1.38;1.20;;;8.50;99.90;;;;;;2075851;28;20741;-64
2023/03/13 02:33:02;;;;;;;1.38;0.80;;;8.50;99.90;;;;;;2072958;28;20181;-64
2023/03/13 02:34:04;;;;;;;2.13;1.63;;;8.40;99.90;;;;;;2075877;28;20189;-65
2023/03/13 02:35:14;;;;;;;0.95;0.75;;;8.50;99.90;;;;;;2076212;28;20181;-64
2023/03/13 02:36:17;;;;;;;1.80;1.08;;;8.50;99.90;;;;;;2075967;28;20287;-64
2023/03/13 02:37:24;;;;;;;2.03;1.92;;;8.50;99.90;;;;;;2065516;28;20634;-64
2023/03/13 02:38:30;;;;;;;2.58;0.88;;;8.50;99.90;;;;;;2068375;28;20200;-64
2023/03/13 02:39:34;;;;;;;1.63;1.52;;;8.50;99.90;;;;;;2068945;28;20201;-64
2023/03/13 02:40:43;;;;;;;1.40;0.95;;;8.50;99.90;;;;;;2065097;28;20182;-64
2023/03/13 02:41:47;;;;;;;1.63;1.08;;;8.40;99.90;;;;;;2076160;28;20177;-63
2023/03/13 02:42:52;;;;;;;3.05;2.85;;;8.40;99.90;;;;;;2076375;28;20185;-64
2023/03/13 02:43:56;;;;;;;2.45;0.80;;;8.40;99.90;;;;;;2075993;28;20662;-64
2023/03/13 02:45:02;;;;;;;1.83;1.67;;;8.40;99.90;;;;;;2069279;28;20229;-64
2023/03/13 02:46:17;;;;;;;1.85;0.82;;;8.40;99.90;;;;;;2076130;28;20174;-64
2023/03/13 02:47:24;;;;;;;1.77;0.93;;;8.30;99.90;;;;;;2066768;28;20197;-64
2023/03/13 02:48:39;;;;;;;3.95;1.00;;;8.40;99.90;;;;;;2074003;28;20273;-64
2023/03/13 02:49:45;;;;;;;6.63;1.00;;;8.40;99.90;;;;;;2072971;28;20202;-64
2023/03/13 02:50:51;;;;;;;1.65;1.27;;;8.50;99.90;;;;;;2076703;28;20649;-64
2023/03/13 02:52:23;;;;;;;2.95;2.38;;;8.40;99.90;;;;;;2076521;28;20188;-64
2023/03/13 02:53:29;;;;;;;1.65;0.80;;;8.30;99.90;;;;;;2075761;28;20189;-63
2023/03/13 02:54:38;;;;;;;1.58;1.48;;;8.40;99.90;;;;;;2076760;28;20193;-64
2023/03/13 02:55:43;;;;;;;3.03;1.00;;;8.30;99.90;;;;;;2077590;28;20308;-64
2023/03/13 02:56:56;;;;;;;3.10;1.27;;;8.30;99.90;;;;;;2076640;28;20331;-64
2023/03/13 02:58:02;;;;;;;3.15;1.20;;;8.30;99.90;;;;;;2073837;28;20213;-64
2023/03/13 02:59:05;;;;;;;1.58;1.35;;;8.40;99.90;;;;;;2077086;28;20225;-64
2023/03/13 03:00:15;;;;;;;1.55;0.85;;;8.40;99.90;;;;;;2076928;28;20182;-63
2023/03/13 03:01:21;;;;;;;3.47;1.08;;;8.30;99.90;;;;;;2074658;28;20751;-64
2023/03/13 03:02:27;;;;;;;5.13;3.00;;;8.40;99.90;;;;;;2077172;28;20232;-64
2023/03/13 03:03:37;;;;;;;0.90;0.70;;;8.40;99.90;;;;;;2077272;28;20613;-64
2023/03/13 03:04:43;;;;;;;2.28;1.17;;;8.30;99.90;;;;;;2076947;28;20190;-64
2023/03/13 03:05:48;;;;;;;2.65;1.65;;;8.40;99.90;;;;;;2076869;28;20228;-64
2023/03/13 03:06:54;;;;;;;3.47;1.10;;;8.40;99.90;;;;;;2076287;28;20181;-64
2023/03/13 03:07:59;;;;;;;2.13;1.52;;;8.40;99.90;;;;;;2075894;28;20642;-64
2023/03/13 03:09:04;;;;;;;0.90;0.80;;;8.40;99.90;;;;;;2076350;28;20657;-64
2023/03/13 03:10:10;;;;;;;1.70;1.60;;;8.50;99.90;;;;;;2076933;28;20181;-63
2023/03/13 03:11:15;;;;;;;3.92;1.33;;;8.50;99.90;;;;;;2073875;28;20195;-64
2023/03/13 03:12:21;;;;;;;0.90;0.80;;;8.50;99.90;;;;;;2077225;28;20205;-64
2023/03/13 03:13:27;;;;;;;5.05;4.65;;;8.50;99.90;;;;;;2077389;28;20186;-64
2023/03/13 03:14:32;;;;;;;5.68;5.38;;;8.50;99.90;;;;;;2078130;28;20185;-64
2023/03/13 03:15:37;;;;;;;1.88;1.10;;;8.60;99.90;;;;;;2072151;28;20205;-65
2023/03/13 03:16:42;;;;;;;1.27;0.90;;;8.50;99.90;;;;;;2078098;28;20185;-63
2023/03/13 03:17:48;;;;;;;4.57;4.38;;;8.50;99.90;;;;;;2077275;28;20209;-64
2023/03/13 03:18:53;;;;;;;7.55;7.13;;;8.60;99.90;;;;;;2074471;28;20642;-64
2023/03/13 03:19:59;;;;;;;5.18;4.88;;;8.60;99.90;;;;;;2077927;28;20563;-64
2023/03/13 03:21:05;;;;;;;1.45;1.38;;;8.60;99.90;;;;;;2069826;28;20284;-64
2023/03/13 03:22:09;;;;;;;3.20;0.80;;;8.60;99.90;;;;;;2074096;28;20209;-64
2023/03/13 03:23:15;;;;;;;1.30;0.88;;;8.70;99.90;;;;;;2071840;28;20196;-62
2023/03/13 03:24:20;;;;;;;2.60;1.42;;;8.70;99.90;;;;;;2077957;28;20181;-64
2023/03/13 03:25:26;;;;;;;2.65;0.98;;;8.80;99.90;;;;;;2077807;28;20181;-64
2023/03/13 03:26:31;;;;;;;1.90;1.10;;;8.70;99.90;;;;;;2074474;28;20181;-64
2023/03/13 03:27:37;;;;;;;2.90;2.70;;;8.70;99.90;;;;;;2077559;28;20271;-64
2023/03/13 03:28:42;;;;;;;2.25;1.52;;;8.80;99.90;;;;;;2077956;28;20197;-64
2023/03/13 03:29:48;;;;;;;2.70;1.85;;;8.70;99.90;;;;;;2077853;28;20277;-64
2023/03/13 03:30:54;;;;;;;1.05;0.63;;;8.70;99.90;;;;;;2078226;28;20294;-64
2023/03/13 03:31:59;;;;;;;1.27;0.88;;;8.80;99.90;;;;;;2078000;28;20185;-65
2023/03/13 03:33:04;;;;;;;2.47;2.25;;;8.80;99.90;;;;;;2078230;28;20259;-64
2023/03/13 03:34:09;;;;;;;1.80;0.80;;;8.80;99.90;;;;;;2074191;28;20608;-64
2023/03/13 03:35:15;;;;;;;1.25;0.80;;;8.80;99.90;;;;;;2077735;28;20227;-64
2023/03/13 03:36:22;;;;;;;3.00;2.80;;;8.90;99.90;;;;;;2077770;28;20295;-65
2023/03/13 03:37:26;;;;;;;1.58;0.90;;;8.80;99.90;;;;;;2073951;28;20235;-64
2023/03/13 03:38:33;;;;;;;1.42;1.35;;;8.80;99.90;;;;;;2074479;28;20185;-63
2023/03/13 03:39:37;;;;;;;1.25;1.17;;;8.80;99.90;;;;;;2077064;28;20192;-63
2023/03/13 03:40:43;;;;;;;1.63;1.52;;;8.90;99.90;;;;;;2078005;28;20196;-63
2023/03/13 03:41:48;;;;;;;4.82;4.43;;;8.80;99.90;;;;;;2074025;28;20177;-64
2023/03/13 03:42:54;;;;;;;1.05;0.88;;;8.80;99.90;;;;;;2078010;28;20181;-64
2023/03/13 03:43:59;;;;;;;2.05;0.98;;;8.90;99.90;;;;;;2077884;28;20635;-64
2023/03/13 03:45:05;;;;;;;0.90;0.80;;;8.90;99.90;;;;;;2077756;28;20234;-64
2023/03/13 03:46:10;;;;;;;4.00;0.80;;;8.90;99.90;;;;;;2074294;28;20189;-64
2023/03/13 03:47:15;;;;;;;1.25;0.70;;;8.90;99.90;;;;;;2077764;28;20193;-64
2023/03/13 03:48:20;;;;;;;1.25;0.60;;;9.00;99.90;;;;;;2076998;28;20189;-64
2023/03/13 03:49:26;;;;;;;0.60;0.60;;;9.00;99.90;;;;;;2078264;28;20190;-64
2023/03/13 03:50:31;;;;;;;1.90;1.80;;;9.00;99.90;;;;;;2078601;28;20177;-64
2023/03/13 03:51:37;;;;;;;1.55;0.68;;;9.00;99.90;;;;;;2082968;28;20177;-64
2023/03/13 03:52:42;;;;;;;0.65;0.63;;;9.00;99.90;;;;;;2086499;28;20192;-64
2023/03/13 03:53:47;;;;;;;2.05;1.00;;;9.10;99.90;;;;;;2074839;28;20569;-64
2023/03/13 03:54:53;;;;;;;1.27;0.77;;;9.00;99.90;;;;;;2078094;28;20193;-63
2023/03/13 03:56:00;;;;;;;2.45;0.70;;;9.10;99.90;;;;;;2078334;28;20645;-64
2023/03/13 03:57:04;;;;;;;1.00;0.75;;;9.00;99.90;;;;;;2077952;28;20272;-64
2023/03/13 03:58:10;;;;;;;2.28;1.77;;;9.10;99.90;;;;;;2077838;28;20181;-63
2023/03/13 03:59:15;;;;;;;1.38;1.27;;;9.10;99.90;;;;;;2078254;28;20576;-64
2023/03/13 04:00:20;;;;;;;2.00;0.70;;;9.00;99.90;;;;;;2078276;28;20185;-63
2023/03/13 04:01:26;;;;;;;0.85;0.85;;;9.00;99.90;;;;;;2074537;28;20180;-64
2023/03/13 04:02:32;;;;;;;2.85;1.90;;;9.00;99.90;;;;;;2077672;28;20197;-63
2023/03/13 04:03:37;;;;;;;0.80;0.65;;;9.10;99.90;;;;;;2077734;28;20188;-64
2023/03/13 04:04:42;;;;;;;1.45;0.60;;;9.10;99.90;;;;;;2077926;28;20211;-64
2023/03/13 04:05:48;;;;;;;1.02;1.00;;;9.00;99.90;;;;;;2078039;28;20650;-64
2023/03/13 04:06:53;;;;;;;5.80;5.45;;;9.00;99.90;;;;;;2079582;28;20578;-63
2023/03/13 04:07:59;;;;;;;1.45;1.27;;;9.10;99.90;;;;;;2077143;28;20556;-64
2023/03/13 04:09:04;;;;;;;0.73;0.63;;;9.10;99.90;;;;;;2074251;28;20297;-64
2023/03/13 04:10:10;;;;;;;0.70;0.70;;;9.00;99.90;;;;;;2077808;28;20207;-63
2023/03/13 04:11:15;;;;;;;0.95;0.68;;;9.00;99.90;;;;;;2077554;28;20182;-64
2023/03/13 04:12:20;;;;;;;1.58;1.20;;;9.00;99.90;;;;;;2077879;28;20197;-64
2023/03/13 04:13:26;;;;;;;1.20;0.60;;;9.00;99.90;;;;;;2078041;28;20244;-64
2023/03/13 04:14:31;;;;;;;1.20;0.70;;;9.00;99.90;;;;;;2077967;28;20200;-64
2023/03/13 04:15:39;;;;;;;0.77;0.60;;;9.00;99.90;;;;;;2077760;28;20205;-65
2023/03/13 04:16:45;;;;;;;0.77;0.60;;;9.00;99.90;;;;;;2074386;28;20542;-64
2023/03/13 04:17:50;;;;;;;2.95;2.75;;;9.00;99.90;;;;;;2076810;28;20304;-64
2023/03/13 04:18:55;;;;;;;8.25;7.85;;;8.90;99.90;;;;;;2077811;28;20173;-64
2023/03/13 04:20:01;;;;;;;3.63;3.45;;;9.00;99.90;;;;;;2073629;28;20173;-64
2023/03/13 04:21:05;;;;;;;0.63;0.50;;;8.90;99.90;;;;;;2077464;28;20677;-64
2023/03/13 04:22:09;;;;;;;0.60;0.60;;;8.80;99.90;;;;;;2076614;28;20208;-64
2023/03/13 04:23:15;;;;;;;2.92;2.50;;;8.90;99.90;;;;;;2077482;28;20316;-65
2023/03/13 04:24:20;;;;;;;1.55;1.40;;;8.80;99.90;;;;;;2073964;28;20181;-64
2023/03/13 04:25:26;;;;;;;1.05;1.00;;;8.80;99.90;;;;;;2077597;28;20189;-64
2023/03/13 04:26:31;;;;;;;2.33;1.10;;;8.80;99.90;;;;;;2077578;28;20210;-64
2023/03/13 04:27:37;;;;;;;0.90;0.68;;;8.70;99.90;;;;;;2077325;28;20186;-65
2023/03/13 04:28:42;;;;;;;0.50;0.50;;;8.80;99.90;;;;;;2067757;28;20681;-63
2023/03/13 04:29:47;;;;;;;1.00;0.60;;;8.80;99.90;;;;;;2077958;28;20572;-64
2023/03/13 04:30:56;;;;;;;5.18;4.95;;;8.80;99.90;;;;;;2078088;28;20289;-64
2023/03/13 04:32:01;;;;;;;0.63;0.60;;;8.70;99.90;;;;;;2077993;28;20178;-64
2023/03/13 04:33:04;;;;;;;3.60;3.40;;;8.70;99.90;;;;;;2077850;28;20201;-63
2023/03/13 04:34:09;;;;;;;0.88;0.80;;;8.70;99.90;;;;;;2078089;28;20201;-64
2023/03/13 04:35:15;;;;;;;4.03;2.08;;;8.60;99.90;;;;;;2074284;28;20192;-64
2023/03/13 04:36:20;;;;;;;2.05;0.80;;;8.60;99.90;;;;;;2073693;28;20282;-63
2023/03/13 04:37:26;;;;;;;7.70;7.32;;;8.70;99.90;;;;;;2069993;28;20220;-63
2023/03/13 04:38:31;;;;;;;2.45;2.35;;;8.60;99.90;;;;;;2076724;28;20196;-63
2023/03/13 04:39:37;;;;;;;0.98;0.65;;;8.60;99.90;;;;;;2066343;28;20182;-63
2023/03/13 04:40:42;;;;;;;1.40;1.38;;;8.60;99.90;;;;;;2079084;28;20201;-63
2023/03/13 04:41:47;;;;;;;4.05;3.75;;;8.60;99.90;;;;;;2079744;28;20182;-62
2023/03/13 04:42:53;;;;;;;1.20;0.60;;;8.60;99.90;;;;;;2080129;28;20177;-62
2023/03/13 04:43:58;;;;;;;2.58;0.90;;;8.60;99.90;;;;;;2069103;28;20174;-62
2023/03/13 04:45:04;;;;;;;1.67;1.58;;;8.70;99.90;;;;;;2079897;28;20619;-63
2023/03/13 04:46:09;;;;;;;1.30;0.70;;;8.80;99.90;;;;;;2080204;28;20705;-62
2023/03/13 04:47:15;;;;;;;2.20;1.75;;;8.70;99.90;;;;;;2079520;28;20670;-63
2023/03/13 04:48:21;;;;;;;5.93;5.63;;;8.70;99.90;;;;;;2077176;28;20323;-62
2023/03/13 04:49:26;;;;;;;0.95;0.90;;;8.80;99.90;;;;;;2079126;28;20193;-63
2023/03/13 04:50:31;;;;;;;0.90;0.90;;;8.70;99.90;;;;;;2079616;28;20204;-63
2023/03/13 04:51:37;;;;;;;3.78;3.50;;;8.80;99.90;;;;;;2077295;28;20183;-63
2023/03/13 04:52:42;;;;;;;2.72;2.63;;;8.70;99.90;;;;;;2078620;28;20256;-63
2023/03/13 04:53:48;;;;;;;2.47;0.70;;;8.70;99.90;;;;;;2079094;28;20185;-63
2023/03/13 04:54:53;;;;;;;2.78;2.63;;;8.70;99.90;;;;;;2079470;28;20216;-63
2023/03/13 04:55:59;;;;;;;2.65;1.30;;;8.70;99.90;;;;;;2079174;28;20685;-63
2023/03/13 04:57:04;;;;;;;2.28;1.10;;;8.70;99.90;;;;;;2079448;28;20807;-64
2023/03/13 04:58:09;;;;;;;3.35;1.02;;;8.70;99.90;;;;;;2079392;28;20713;-63
2023/03/13 04:59:15;;;;;;;1.38;1.30;;;8.70;99.90;;;;;;2080289;28;20177;-63
2023/03/13 05:00:20;;;;;;;2.58;0.70;;;8.80;99.90;;;;;;2080410;28;20178;-63
2023/03/13 05:01:26;;;;;;;0.60;0.50;;;8.80;99.90;;;;;;2079854;28;20223;-64
2023/03/13 05:02:31;;;;;;;10.30;9.77;;;8.80;99.90;;;;;;2079474;28;20211;-63
2023/03/13 05:03:37;;;;;;;2.95;2.85;;;8.80;99.90;;;;;;2079095;28;20188;-63
2023/03/13 05:04:42;;;;;;;0.93;0.90;;;8.80;99.90;;;;;;2078204;28;20178;-64
2023/03/13 05:05:48;;;;;;;1.05;0.70;;;8.70;99.90;;;;;;2079338;28;20193;-64
2023/03/13 05:06:53;;;;;;;0.73;0.70;;;8.70;99.90;;;;;;2074522;28;20181;-63
2023/03/13 05:07:58;;;;;;;0.50;0.50;;;8.70;99.90;;;;;;2077573;28;20181;-64
2023/03/13 05:09:04;;;;;;;1.15;0.63;;;8.80;99.90;;;;;;2078051;28;20189;-63
2023/03/13 05:10:10;;;;;;;1.17;1.15;;;8.80;99.90;;;;;;2078462;28;20177;-69
2023/03/13 05:11:15;;;;;;;0.52;0.52;;;8.80;99.90;;;;;;2078476;28;20332;-64
2023/03/13 05:12:20;;;;;;;1.60;1.50;;;8.80;99.90;;;;;;2078668;28;20205;-63
2023/03/13 05:13:26;;;;;;;0.60;0.60;;;8.80;99.90;;;;;;2078759;28;20184;-63
2023/03/13 05:14:31;;;;;;;1.52;1.52;;;8.90;99.90;;;;;;2075191;28;20267;-63
2023/03/13 05:15:37;;;;;;;0.50;0.50;;;8.80;99.90;;;;;;2079066;28;20208;-63
2023/03/13 05:16:42;;;;;;;2.38;0.82;;;8.80;99.90;;;;;;2078702;28;20679;-64
2023/03/13 05:17:48;;;;;;;1.10;1.00;;;8.90;99.90;;;;;;2071978;28;20938;-64
2023/03/13 05:18:53;;;;;;;0.60;0.60;;;8.80;99.90;;;;;;2079821;28;20281;-63
2023/03/13 05:19:58;;;;;;;0.95;0.73;;;8.90;99.90;;;;;;2079691;28;20260;-63
2023/03/13 05:21:05;;;;;;;2.00;0.60;;;8.90;99.90;;;;;;2074234;28;20256;-63
2023/03/13 05:22:09;;;;;;;0.85;0.60;;;8.90;99.90;;;;;;2071567;28;20212;-62
2023/03/13 05:23:15;;;;;;;0.90;0.90;;;8.90;99.90;;;;;;2075958;28;20184;-62
2023/03/13 05:24:20;;;;;;;1.55;1.40;;;8.90;99.90;;;;;;2078684;28;20201;-63
2023/03/13 05:25:26;;;;;;;1.08;1.08;;;8.90;99.90;;;;;;2078632;28;20659;-63
2023/03/13 05:26:31;;;;;;;0.90;0.70;;;8.90;99.90;;;;;;2079320;28;20189;-63
2023/03/13 05:27:37;;;;;;;17.52;16.67;;;9.00;99.90;;;;;;2079120;28;20200;-63
2023/03/13 05:28:42;;;;;;;0.95;0.82;;;8.90;99.90;;;;;;2079300;28;20272;-63
2023/03/13 05:29:47;;;;;;;1.90;0.47;;;8.90;99.90;;;;;;2075698;28;20224;-63
2023/03/13 05:30:53;;;;;;;0.90;0.90;;;8.90;99.90;;;;;;2080609;28;20832;-63
2023/03/13 05:31:58;;;;;;;0.50;0.47;;;8.90;99.90;;;;;;2080446;28;20247;-62
2023/03/13 05:33:04;;;;;;;1.27;1.27;;;9.00;99.90;;;;;;2077333;28;20184;-63
2023/03/13 05:34:09;;;;;;;6.78;6.47;;;8.90;99.90;;;;;;2073190;28;20219;-62
2023/03/13 05:35:15;;;;;;;1.33;1.27;;;8.90;99.90;;;;;;2077052;28;20222;-64
2023/03/13 05:36:20;;;;;;;0.70;0.70;;;8.90;99.90;;;;;;2076996;28;20663;-64
2023/03/13 05:37:26;;;;;;;1.63;0.90;;;9.00;99.90;;;;;;2073426;28;20228;-64
2023/03/13 05:38:31;;;;;;;2.45;1.35;;;9.00;99.90;;;;;;2077475;28;20190;-63
2023/03/13 05:39:37;;;;;;;4.32;4.03;;;9.10;99.90;;;;;;2080838;28;20195;-64
2023/03/13 05:40:42;;;;;;;2.25;1.90;;;9.10;99.90;;;;;;2078395;28;20239;-63
2023/03/13 05:41:48;;;;;;;2.78;2.58;;;9.10;99.90;;;;;;2073877;28;20247;-63
2023/03/13 05:42:53;;;;;;;2.17;1.33;;;9.10;99.90;;;;;;2077115;28;20176;-63
2023/03/13 05:43:59;;;;;;;2.30;0.80;;;9.10;99.90;;;;;;2077210;28;20169;-62
2023/03/13 05:45:05;;;;;;;2.88;2.70;;;9.20;99.90;;;;;;2077516;28;20265;-63
2023/03/13 05:46:10;;;;;;;3.92;3.72;;;9.20;99.90;;;;;;2077479;28;20181;-64
2023/03/13 05:47:17;;;;;;;1.33;0.60;;;9.20;99.90;;;;;;2077371;28;20212;-64
2023/03/13 05:48:22;;;;;;;1.17;1.08;;;9.20;99.90;;;;;;2077588;28;20192;-64
2023/03/13 05:49:28;;;;;;;1.73;1.65;;;9.20;99.90;;;;;;2077182;28;20189;-64
2023/03/13 05:50:33;;;;;;;0.60;0.60;;;9.20;99.90;;;;;;2080719;28;20642;-64
2023/03/13 05:51:39;;;;;;;1.02;1.00;;;9.20;99.90;;;;;;2078006;28;20650;-64